Time;durP1;ratioP1;P1;durP2;ratioP2;P2;SDS_P1;SDS_P2;PMS_P1;PMS_P2;Temp;Humidity;BMP_temperature;BMP_pressure;BME280_temperature;BME280_humidity;BME280_pressure;Samples;Min_cycle;Max_cycle;Signal;HPM_P1;HPM_P2
2021/08/08 00:00:14;;;;;;;1.47;1.20;;;16.50;99.90;;;;;;5002985;28;20283;-48
2021/08/08 00:02:40;;;;;;;2.63;1.43;;;16.60;99.90;;;;;;5000574;28;20611;-48
2021/08/08 00:05:08;;;;;;;2.57;1.27;;;16.40;99.90;;;;;;5002509;28;20806;-48
2021/08/08 00:07:34;;;;;;;1.50;1.40;;;16.70;99.90;;;;;;5003365;28;20426;-48
2021/08/08 00:10:00;;;;;;;1.60;1.20;;;16.90;99.90;;;;;;5002046;28;20213;-48
2021/08/08 00:12:26;;;;;;;2.53;1.30;;;16.60;99.90;;;;;;5001059;28;20430;-48
2021/08/08 00:14:51;;;;;;;2.13;1.50;;;16.90;99.90;;;;;;5003161;28;20186;-48
2021/08/08 00:17:17;;;;;;;1.40;1.30;;;16.60;99.90;;;;;;4996321;28;20664;-48
2021/08/08 00:19:43;;;;;;;1.33;1.20;;;16.80;99.90;;;;;;5001217;28;20206;-48
2021/08/08 00:22:09;;;;;;;2.20;1.70;;;16.60;99.90;;;;;;4996760;28;20266;-48
2021/08/08 00:24:34;;;;;;;1.53;1.43;;;16.70;99.90;;;;;;4997333;28;20183;-48
2021/08/08 00:27:00;;;;;;;2.13;1.60;;;16.50;99.90;;;;;;5006382;28;20699;-48
2021/08/08 00:29:26;;;;;;;2.53;1.40;;;16.60;99.90;;;;;;4996185;28;20486;-48
2021/08/08 00:31:51;;;;;;;2.63;1.30;;;16.70;99.90;;;;;;4997503;28;20180;-47
2021/08/08 00:34:17;;;;;;;1.53;1.03;;;16.90;99.90;;;;;;5000312;28;20201;-48
2021/08/08 00:36:43;;;;;;;2.03;1.67;;;17.00;99.90;;;;;;5001494;28;20222;-48
2021/08/08 00:39:08;;;;;;;2.23;1.17;;;16.80;99.90;;;;;;4997410;28;20670;-47
2021/08/08 00:41:34;;;;;;;3.17;1.60;;;16.70;99.90;;;;;;5000094;28;20188;-47
2021/08/08 00:44:00;;;;;;;3.93;1.57;;;16.70;99.90;;;;;;5008578;28;20183;-47
2021/08/08 00:46:26;;;;;;;1.33;1.20;;;16.80;99.90;;;;;;4997564;28;20234;-48
2021/08/08 00:48:52;;;;;;;1.30;1.20;;;17.00;99.90;;;;;;4999641;28;20492;-48
2021/08/08 00:51:17;;;;;;;2.40;2.00;;;16.60;99.90;;;;;;4995789;28;20422;-48
2021/08/08 00:53:44;;;;;;;3.50;1.80;;;16.70;99.90;;;;;;4995455;28;20184;-47
2021/08/08 00:56:11;;;;;;;2.95;1.58;;;16.70;99.90;;;;;;4991448;28;20720;-48
2021/08/08 00:58:37;;;;;;;1.40;1.30;;;16.80;99.90;;;;;;5003805;28;20275;-48
2021/08/08 01:01:06;;;;;;;1.80;1.20;;;16.60;99.90;;;;;;4997665;28;20175;-48
2021/08/08 01:03:33;;;;;;;4.30;1.95;;;16.40;99.90;;;;;;4998459;28;20183;-48
2021/08/08 01:06:08;;;;;;;3.70;1.75;;;16.80;99.90;;;;;;5008343;28;20206;-47
2021/08/08 01:08:37;;;;;;;2.50;1.40;;;16.40;99.90;;;;;;4999334;28;20183;-48
2021/08/08 01:11:03;;;;;;;2.45;2.28;;;16.50;99.90;;;;;;5001269;28;20237;-48
2021/08/08 01:13:32;;;;;;;1.90;1.80;;;16.50;99.90;;;;;;5003818;28;20211;-48
2021/08/08 01:15:58;;;;;;;2.28;1.58;;;16.40;99.90;;;;;;4999469;28;20199;-48
2021/08/08 01:18:25;;;;;;;1.98;1.33;;;16.40;99.90;;;;;;4994847;28;20250;-48
2021/08/08 01:20:51;;;;;;;4.07;1.90;;;16.20;99.90;;;;;;4995027;28;20260;-48
2021/08/08 01:23:17;;;;;;;7.07;1.55;;;16.20;99.90;;;;;;5003997;28;20555;-47
2021/08/08 01:25:45;;;;;;;2.45;1.70;;;16.30;99.90;;;;;;4999352;28;20199;-48
2021/08/08 01:28:11;;;;;;;2.00;1.55;;;16.30;99.90;;;;;;5003462;28;20514;-48
2021/08/08 01:30:37;;;;;;;2.50;1.40;;;16.50;99.90;;;;;;5000220;28;20711;-48
2021/08/08 01:33:05;;;;;;;2.10;1.50;;;16.30;99.90;;;;;;5002487;28;20210;-48
2021/08/08 01:35:31;;;;;;;3.53;1.30;;;16.00;99.90;;;;;;5000068;28;20620;-48
2021/08/08 01:37:57;;;;;;;3.13;1.47;;;16.30;99.90;;;;;;5003799;28;20271;-47
2021/08/08 01:40:32;;;;;;;2.10;1.40;;;16.40;99.90;;;;;;5001490;28;20179;-48
2021/08/08 01:42:59;;;;;;;2.25;1.30;;;16.30;99.90;;;;;;5003604;28;20441;-48
2021/08/08 01:45:25;;;;;;;1.80;1.70;;;16.40;99.90;;;;;;5004837;28;20264;-48
2021/08/08 01:47:56;;;;;;;1.45;1.25;;;16.20;99.90;;;;;;5001413;28;20224;-48
2021/08/08 01:50:22;;;;;;;2.53;1.50;;;16.40;99.90;;;;;;5003908;28;20298;-48
2021/08/08 01:52:49;;;;;;;4.32;1.40;;;16.20;99.90;;;;;;4996589;28;20207;-48
2021/08/08 01:55:15;;;;;;;3.40;1.40;;;16.30;99.90;;;;;;4999303;28;20226;-48
2021/08/08 01:57:42;;;;;;;1.60;1.50;;;16.20;99.90;;;;;;5000565;28;20182;-48
2021/08/08 02:00:08;;;;;;;2.50;1.60;;;16.50;99.90;;;;;;4998443;28;20210;-48
2021/08/08 02:02:34;;;;;;;2.00;1.73;;;16.30;99.90;;;;;;4998665;28;20179;-49
2021/08/08 02:05:00;;;;;;;3.40;2.57;;;16.20;99.90;;;;;;5000926;28;20175;-48
2021/08/08 02:07:26;;;;;;;1.60;1.50;;;15.90;99.90;;;;;;4999647;28;20190;-48
2021/08/08 02:09:52;;;;;;;1.37;1.27;;;15.90;99.90;;;;;;4997439;28;20548;-48
2021/08/08 02:12:18;;;;;;;2.07;1.73;;;16.00;99.90;;;;;;5001250;28;20171;-49
2021/08/08 02:14:43;;;;;;;2.40;1.55;;;16.00;99.90;;;;;;4994704;28;20175;-48
2021/08/08 02:17:09;;;;;;;2.00;1.80;;;16.10;99.90;;;;;;4998294;28;20202;-48
2021/08/08 02:19:36;;;;;;;1.50;1.35;;;15.80;99.90;;;;;;5000258;28;20222;-47
2021/08/08 02:22:03;;;;;;;1.55;1.25;;;15.80;99.90;;;;;;4995801;28;20182;-48
2021/08/08 02:24:31;;;;;;;1.70;1.40;;;15.80;99.90;;;;;;5000141;28;20188;-48
2021/08/08 02:26:58;;;;;;;1.98;1.75;;;15.70;99.90;;;;;;5003826;28;20611;-48
2021/08/08 02:29:24;;;;;;;2.65;1.55;;;15.70;99.90;;;;;;5003656;28;20292;-47
2021/08/08 02:31:50;;;;;;;1.80;1.70;;;15.60;99.90;;;;;;5003997;28;20212;-48
2021/08/08 02:34:16;;;;;;;2.27;2.07;;;15.60;99.90;;;;;;4996707;28;20260;-48
2021/08/08 02:36:42;;;;;;;3.20;1.53;;;15.40;99.90;;;;;;5001593;28;20192;-48
2021/08/08 02:39:08;;;;;;;2.85;1.48;;;15.50;99.90;;;;;;4996201;28;20384;-48
2021/08/08 02:41:34;;;;;;;3.17;1.33;;;15.50;99.90;;;;;;5004121;28;20277;-48
2021/08/08 02:44:00;;;;;;;3.33;1.30;;;15.40;99.90;;;;;;5001517;28;20179;-48
2021/08/08 02:46:26;;;;;;;1.70;1.60;;;15.30;99.90;;;;;;5002536;28;20207;-48
2021/08/08 02:48:52;;;;;;;1.77;1.40;;;15.40;99.90;;;;;;4998400;28;20569;-48
2021/08/08 02:51:18;;;;;;;3.10;2.57;;;15.60;99.90;;;;;;4997910;28;20186;-47
2021/08/08 02:53:43;;;;;;;3.55;1.60;;;15.40;99.90;;;;;;4997268;28;20179;-48
2021/08/08 02:56:09;;;;;;;1.53;1.30;;;15.50;99.90;;;;;;4992220;28;20206;-48
2021/08/08 02:58:35;;;;;;;2.03;1.40;;;15.40;99.90;;;;;;4998628;28;20582;-48
2021/08/08 03:01:03;;;;;;;1.90;1.70;;;15.30;99.90;;;;;;5004384;28;20422;-48
2021/08/08 03:03:31;;;;;;;1.65;1.23;;;15.00;99.90;;;;;;4996974;28;20441;-48
2021/08/08 03:05:58;;;;;;;1.98;1.65;;;15.30;99.90;;;;;;5000823;28;20273;-48
2021/08/08 03:08:24;;;;;;;1.60;1.50;;;15.20;99.90;;;;;;4996401;28;20199;-48
2021/08/08 03:10:50;;;;;;;5.00;1.90;;;15.30;99.90;;;;;;5001622;28;20180;-48
2021/08/08 03:13:15;;;;;;;1.93;1.50;;;15.20;99.90;;;;;;5004360;28;20640;-48
2021/08/08 03:15:41;;;;;;;3.30;1.63;;;15.10;99.90;;;;;;5002811;28;20188;-47
2021/08/08 03:18:07;;;;;;;2.10;1.70;;;15.10;99.90;;;;;;5001215;28;20190;-47
2021/08/08 03:20:33;;;;;;;2.57;1.67;;;15.00;99.90;;;;;;5006346;28;20687;-48
2021/08/08 03:22:59;;;;;;;1.75;1.65;;;15.00;99.90;;;;;;5009227;28;20632;-48
2021/08/08 03:25:24;;;;;;;3.90;1.57;;;15.20;99.90;;;;;;5001746;28;20238;-47
2021/08/08 03:27:50;;;;;;;2.17;1.40;;;14.80;99.90;;;;;;5004795;28;20721;-48
2021/08/08 03:30:17;;;;;;;1.80;1.50;;;15.00;99.90;;;;;;5002698;28;20231;-47
2021/08/08 03:32:42;;;;;;;1.70;1.60;;;14.80;99.90;;;;;;5001896;28;20442;-47
2021/08/08 03:35:09;;;;;;;2.50;1.50;;;14.90;99.90;;;;;;4998705;28;20202;-47
2021/08/08 03:37:34;;;;;;;4.45;1.92;;;14.70;99.90;;;;;;5000217;28;20167;-47
2021/08/08 03:40:00;;;;;;;1.83;1.73;;;14.90;99.90;;;;;;5004045;28;20194;-48
2021/08/08 03:42:26;;;;;;;1.50;1.40;;;15.00;99.90;;;;;;5002826;28;20465;-47
2021/08/08 03:44:52;;;;;;;1.63;1.53;;;14.90;99.90;;;;;;5003763;28;20183;-47
2021/08/08 03:47:19;;;;;;;2.92;1.38;;;14.70;99.90;;;;;;5000601;28;20632;-47
2021/08/08 03:49:45;;;;;;;1.85;1.75;;;14.90;99.90;;;;;;5003649;28;20203;-48
2021/08/08 03:52:11;;;;;;;3.33;1.70;;;14.70;99.90;;;;;;4998809;28;20505;-47
2021/08/08 03:54:36;;;;;;;3.27;1.53;;;14.80;99.90;;;;;;5000590;28;20192;-48
2021/08/08 03:57:02;;;;;;;3.27;1.70;;;15.00;99.90;;;;;;5002371;28;20778;-48
2021/08/08 03:59:28;;;;;;;3.40;1.83;;;14.90;99.90;;;;;;5001216;28;20613;-47
2021/08/08 04:01:54;;;;;;;1.80;1.47;;;14.80;99.90;;;;;;5004638;28;20473;-47
2021/08/08 04:04:19;;;;;;;1.60;1.40;;;14.90;99.90;;;;;;5000034;28;20243;-47
2021/08/08 04:06:45;;;;;;;1.70;1.60;;;15.10;99.90;;;;;;5005949;28;20448;-48
2021/08/08 04:09:11;;;;;;;3.77;1.50;;;15.00;99.90;;;;;;4998896;28;20216;-48
2021/08/08 04:11:37;;;;;;;4.03;1.53;;;14.70;99.90;;;;;;5003651;28;20673;-47
2021/08/08 04:14:02;;;;;;;2.45;1.60;;;14.90;99.90;;;;;;5003027;28;20183;-48
2021/08/08 04:16:28;;;;;;;1.83;1.70;;;14.80;99.90;;;;;;4999379;28;20677;-47
2021/08/08 04:18:54;;;;;;;2.20;2.00;;;14.80;99.90;;;;;;5006220;28;20187;-48
2021/08/08 04:21:20;;;;;;;2.40;1.60;;;14.80;99.90;;;;;;5005492;28;20237;-48
2021/08/08 04:23:45;;;;;;;1.80;1.50;;;14.80;99.90;;;;;;4999974;28;20281;-47
2021/08/08 04:26:11;;;;;;;2.80;1.70;;;14.80;99.90;;;;;;5005214;28;20277;-48
2021/08/08 04:28:39;;;;;;;1.50;1.40;;;14.80;99.90;;;;;;5000536;28;20207;-48
2021/08/08 04:31:09;;;;;;;2.75;1.70;;;15.00;99.90;;;;;;5006382;28;20179;-47
2021/08/08 04:33:36;;;;;;;1.73;1.63;;;15.20;99.90;;;;;;5001369;28;20189;-53
2021/08/08 04:36:03;;;;;;;1.70;1.60;;;15.30;99.90;;;;;;4997848;28;20195;-53
2021/08/08 04:38:29;;;;;;;2.75;1.30;;;14.90;99.90;;;;;;4997268;28;20203;-54
2021/08/08 04:40:55;;;;;;;2.35;1.65;;;15.00;99.90;;;;;;5004273;28;20191;-53
2021/08/08 04:43:21;;;;;;;2.38;1.50;;;15.20;99.90;;;;;;4999199;28;20210;-53
2021/08/08 04:45:47;;;;;;;2.33;1.67;;;15.10;99.90;;;;;;5008816;28;20204;-54
2021/08/08 04:48:13;;;;;;;5.07;1.80;;;15.00;99.90;;;;;;4996168;28;20333;-54
2021/08/08 04:50:38;;;;;;;1.83;1.63;;;15.10;99.90;;;;;;5005018;28;20664;-54
2021/08/08 04:53:04;;;;;;;2.10;1.50;;;14.90;99.90;;;;;;4998818;28;20183;-55
2021/08/08 04:55:30;;;;;;;1.70;1.60;;;14.90;99.90;;;;;;5005814;28;20199;-54
2021/08/08 04:57:55;;;;;;;2.43;1.53;;;14.90;99.90;;;;;;4997067;28;20200;-54
2021/08/08 05:00:21;;;;;;;1.73;1.60;;;15.10;99.90;;;;;;5001486;28;20545;-54
2021/08/08 05:02:48;;;;;;;2.37;1.77;;;14.90;99.90;;;;;;5004290;28;20585;-54
2021/08/08 05:05:15;;;;;;;3.80;1.63;;;14.90;99.90;;;;;;4997918;28;20194;-55
2021/08/08 05:07:41;;;;;;;2.50;1.60;;;15.10;99.90;;;;;;5005934;28;20656;-55
2021/08/08 05:10:12;;;;;;;3.63;1.52;;;14.70;99.90;;;;;;5000210;28;20268;-54
2021/08/08 05:12:38;;;;;;;3.38;1.50;;;14.90;99.90;;;;;;5003281;28;20179;-52
2021/08/08 05:15:05;;;;;;;4.07;1.70;;;15.20;99.90;;;;;;5002861;28;20632;-48
2021/08/08 05:17:31;;;;;;;2.50;1.33;;;15.10;99.90;;;;;;5001711;28;20206;-48
2021/08/08 05:19:56;;;;;;;1.50;1.40;;;15.00;99.90;;;;;;5002628;28;20191;-48
2021/08/08 05:22:22;;;;;;;2.00;1.17;;;15.20;99.90;;;;;;5002509;28;20652;-49
2021/08/08 05:24:48;;;;;;;3.90;1.40;;;15.20;99.90;;;;;;5004012;28;20262;-48
2021/08/08 05:27:13;;;;;;;1.43;1.33;;;15.30;99.90;;;;;;4999383;28;20195;-49
2021/08/08 05:29:39;;;;;;;1.73;1.63;;;15.40;99.90;;;;;;5002618;28;20234;-47
2021/08/08 05:32:05;;;;;;;2.70;1.40;;;15.60;99.90;;;;;;4999226;28;20176;-48
2021/08/08 05:34:31;;;;;;;3.57;1.60;;;15.60;99.90;;;;;;4997702;28;20270;-48
2021/08/08 05:36:56;;;;;;;2.10;1.63;;;15.80;99.90;;;;;;4999402;28;20765;-48
2021/08/08 05:39:22;;;;;;;1.50;1.40;;;15.90;99.90;;;;;;5001824;28;20583;-48
2021/08/08 05:41:48;;;;;;;1.80;1.50;;;16.00;99.90;;;;;;4998991;28;20266;-48
2021/08/08 05:44:13;;;;;;;1.63;1.50;;;15.90;99.90;;;;;;5001267;28;20183;-49
2021/08/08 05:46:39;;;;;;;1.50;1.40;;;15.90;99.90;;;;;;4994629;28;20210;-48
2021/08/08 05:49:08;;;;;;;1.38;1.27;;;16.10;99.90;;;;;;5003493;28;20207;-48
2021/08/08 05:51:42;;;;;;;2.17;1.17;;;16.10;99.90;;;;;;4999306;28;20206;-48
2021/08/08 05:54:08;;;;;;;2.15;1.45;;;16.30;99.90;;;;;;4997667;28;20660;-49
2021/08/08 05:56:34;;;;;;;2.65;1.30;;;16.50;99.90;;;;;;5005282;28;20202;-49
2021/08/08 05:58:59;;;;;;;1.17;1.08;;;16.50;99.90;;;;;;4995024;28;20188;-49
2021/08/08 06:01:25;;;;;;;2.03;1.30;;;16.70;99.90;;;;;;5007560;28;20196;-49
2021/08/08 06:03:51;;;;;;;1.00;1.00;;;16.90;99.90;;;;;;5002627;28;20261;-49
2021/08/08 06:06:17;;;;;;;1.50;1.00;;;16.80;99.90;;;;;;5004884;28;20533;-48
2021/08/08 06:08:43;;;;;;;1.65;1.25;;;16.70;99.90;;;;;;5004274;28;20217;-48
2021/08/08 06:11:08;;;;;;;1.23;1.03;;;17.00;99.90;;;;;;5004858;28;20187;-48
2021/08/08 06:13:34;;;;;;;1.63;1.00;;;17.10;99.90;;;;;;4994616;28;20191;-48
2021/08/08 06:16:00;;;;;;;1.17;1.00;;;17.30;99.90;;;;;;4996701;28;20203;-49
2021/08/08 06:18:26;;;;;;;1.40;1.30;;;17.40;99.90;;;;;;5004470;28;20486;-49
2021/08/08 06:20:52;;;;;;;3.23;1.10;;;17.40;99.90;;;;;;4998942;28;20186;-48
2021/08/08 06:23:18;;;;;;;1.83;1.10;;;17.60;99.90;;;;;;4997600;28;20211;-49
2021/08/08 06:25:43;;;;;;;3.33;1.00;;;17.70;99.90;;;;;;5006463;28;20203;-48
2021/08/08 06:28:09;;;;;;;2.30;0.90;;;17.80;99.90;;;;;;4998620;28;20454;-49
2021/08/08 06:30:35;;;;;;;1.10;1.00;;;17.80;99.90;;;;;;5003978;28;20237;-49
2021/08/08 06:33:00;;;;;;;1.33;1.10;;;18.00;99.90;;;;;;5003271;28;20175;-49
2021/08/08 06:35:26;;;;;;;1.60;1.10;;;18.10;99.90;;;;;;4997488;28;20194;-48
2021/08/08 06:37:52;;;;;;;2.50;1.00;;;18.20;99.90;;;;;;5001369;28;20262;-49
2021/08/08 06:40:18;;;;;;;2.23;1.00;;;18.20;99.90;;;;;;5001374;28;20195;-49
2021/08/08 06:42:43;;;;;;;2.75;1.33;;;18.30;99.90;;;;;;4999135;28;20183;-49
2021/08/08 06:45:10;;;;;;;3.63;1.20;;;18.40;99.90;;;;;;4999041;28;20690;-49
2021/08/08 06:47:36;;;;;;;1.65;1.08;;;18.50;99.90;;;;;;4999994;28;20767;-48
2021/08/08 06:50:02;;;;;;;1.23;1.10;;;18.60;99.90;;;;;;5003117;28;20206;-49
2021/08/08 06:52:27;;;;;;;1.33;1.10;;;18.70;99.90;;;;;;5008796;28;20182;-49
2021/08/08 06:54:53;;;;;;;4.07;1.00;;;18.80;99.90;;;;;;5004095;28;20444;-49
2021/08/08 06:57:26;;;;;;;1.87;1.10;;;18.90;99.90;;;;;;5002022;28;20383;-49
2021/08/08 06:59:52;;;;;;;1.35;1.20;;;19.10;99.90;;;;;;5011676;28;20658;-49
2021/08/08 07:02:18;;;;;;;1.40;1.30;;;19.20;99.90;;;;;;5001938;28;20266;-49
2021/08/08 07:04:44;;;;;;;2.43;1.80;;;19.30;99.90;;;;;;5006253;28;20917;-48
2021/08/08 07:07:10;;;;;;;3.30;1.27;;;19.50;99.90;;;;;;5000613;28;20464;-49
2021/08/08 07:09:35;;;;;;;2.27;1.20;;;20.00;99.90;;;;;;4999931;28;20207;-49
2021/08/08 07:12:01;;;;;;;1.73;1.10;;;21.20;99.90;;;;;;5003871;28;20175;-49
2021/08/08 07:14:31;;;;;;;2.70;1.00;;;23.40;98.30;;;;;;5003561;28;20619;-50
2021/08/08 07:16:56;;;;;;;2.60;1.30;;;25.60;92.60;;;;;;5002142;28;20194;-55
2021/08/08 07:19:22;;;;;;;1.30;1.00;;;27.20;88.00;;;;;;5000330;28;20568;-50
2021/08/08 07:21:49;;;;;;;1.43;1.00;;;28.10;80.60;;;;;;5010917;28;20189;-50
2021/08/08 07:24:14;;;;;;;1.87;0.97;;;28.00;80.00;;;;;;4999693;28;20202;-50
2021/08/08 07:26:40;;;;;;;2.60;1.27;;;29.20;76.80;;;;;;5005981;28;20461;-49
2021/08/08 07:29:06;;;;;;;1.63;1.13;;;30.40;72.40;;;;;;4999610;28;20212;-50
2021/08/08 07:31:32;;;;;;;1.80;1.10;;;31.40;69.00;;;;;;5010285;28;20206;-50
2021/08/08 07:33:57;;;;;;;3.40;1.27;;;32.60;63.20;;;;;;5005152;28;20244;-50
2021/08/08 07:36:23;;;;;;;1.70;0.97;;;33.50;59.30;;;;;;5003963;28;20458;-50
2021/08/08 07:38:49;;;;;;;2.10;1.20;;;33.20;58.50;;;;;;5007823;28;20183;-51
2021/08/08 07:41:14;;;;;;;3.00;1.07;;;33.60;58.30;;;;;;5000149;28;20202;-49
2021/08/08 07:43:40;;;;;;;1.50;0.87;;;33.20;55.60;;;;;;5005829;28;20266;-50
2021/08/08 07:46:06;;;;;;;1.20;1.00;;;32.60;56.10;;;;;;5004420;28;20261;-50
2021/08/08 07:48:32;;;;;;;1.33;1.00;;;33.30;56.30;;;;;;5004054;28;20195;-55
2021/08/08 07:50:58;;;;;;;4.60;1.10;;;33.70;55.10;;;;;;5001246;28;20528;-54
2021/08/08 07:53:23;;;;;;;1.27;0.90;;;33.20;54.60;;;;;;5002118;28;20555;-54
2021/08/08 07:55:55;;;;;;;1.83;1.60;;;32.60;55.00;;;;;;5001253;28;20203;-54
2021/08/08 07:58:21;;;;;;;1.77;1.17;;;31.50;57.10;;;;;;4999879;28;20192;-55
2021/08/08 08:00:47;;;;;;;1.57;1.13;;;31.50;58.00;;;;;;5005813;28;20934;-54
2021/08/08 08:03:13;;;;;;;1.20;1.10;;;30.10;58.40;;;;;;4999293;28;20449;-54
2021/08/08 08:05:39;;;;;;;1.57;1.07;;;30.00;59.70;;;;;;4995748;28;20212;-54
2021/08/08 08:08:05;;;;;;;1.73;1.00;;;29.80;59.60;;;;;;5006484;28;20965;-54
2021/08/08 08:10:32;;;;;;;3.53;1.10;;;29.50;61.30;;;;;;5003548;28;20518;-54
2021/08/08 08:12:58;;;;;;;1.80;1.03;;;30.50;60.10;;;;;;5003354;28;20855;-54
2021/08/08 08:15:25;;;;;;;1.40;1.13;;;31.30;58.80;;;;;;5005395;28;20461;-54
2021/08/08 08:17:51;;;;;;;1.10;1.00;;;33.10;55.20;;;;;;4995795;28;20473;-54
2021/08/08 08:20:18;;;;;;;2.40;0.90;;;34.50;51.20;;;;;;4997994;28;20439;-54
2021/08/08 08:22:44;;;;;;;1.50;1.13;;;34.20;50.50;;;;;;5004771;28;20434;-55
2021/08/08 08:25:10;;;;;;;1.50;1.10;;;33.80;51.00;;;;;;5003604;28;20446;-54
2021/08/08 08:27:36;;;;;;;1.30;0.93;;;33.90;51.40;;;;;;5008881;28;20245;-55
2021/08/08 08:30:02;;;;;;;1.63;1.10;;;34.90;49.70;;;;;;5004683;28;20981;-55
2021/08/08 08:32:28;;;;;;;2.50;0.93;;;35.30;48.80;;;;;;4998419;28;20435;-55
2021/08/08 08:34:54;;;;;;;0.90;0.90;;;35.50;47.70;;;;;;5005781;28;20467;-54
2021/08/08 08:37:19;;;;;;;1.83;0.80;;;35.50;47.10;;;;;;5004771;28;20250;-54
2021/08/08 08:39:46;;;;;;;2.67;1.23;;;34.70;47.60;;;;;;5006790;28;20333;-54
2021/08/08 08:42:13;;;;;;;1.63;0.83;;;35.10;47.20;;;;;;5001168;28;20189;-55
2021/08/08 08:44:39;;;;;;;1.43;1.00;;;35.00;46.60;;;;;;5002117;28;20963;-56
2021/08/08 08:47:07;;;;;;;1.10;0.83;;;34.60;47.10;;;;;;4996783;28;20885;-55
2021/08/08 08:49:41;;;;;;;2.60;1.10;;;34.90;47.40;;;;;;4998781;28;20463;-54
2021/08/08 08:52:11;;;;;;;1.93;1.63;;;35.30;45.70;;;;;;4996799;28;20529;-55
2021/08/08 08:54:37;;;;;;;1.30;1.17;;;35.20;46.00;;;;;;4996658;28;20442;-55
2021/08/08 08:57:03;;;;;;;2.00;1.10;;;33.30;47.70;;;;;;4998328;28;20461;-54
2021/08/08 08:59:30;;;;;;;1.03;0.80;;;32.00;50.30;;;;;;4998862;28;20437;-54
2021/08/08 09:01:55;;;;;;;3.10;1.17;;;30.80;52.30;;;;;;4999191;28;20498;-54
2021/08/08 09:04:21;;;;;;;2.50;1.30;;;29.30;55.30;;;;;;4999544;28;20448;-49
2021/08/08 09:06:47;;;;;;;2.50;1.70;;;28.50;57.50;;;;;;5000102;28;20959;-49
2021/08/08 09:09:15;;;;;;;3.27;1.60;;;27.70;58.40;;;;;;5000476;28;20578;-49
2021/08/08 09:11:42;;;;;;;1.70;1.27;;;26.60;61.60;;;;;;5001107;28;20183;-49
2021/08/08 09:14:10;;;;;;;1.63;1.50;;;27.10;61.80;;;;;;5006711;28;20470;-50
2021/08/08 09:16:41;;;;;;;2.03;1.37;;;28.10;61.10;;;;;;4999365;28;20542;-49
2021/08/08 09:19:16;;;;;;;1.83;1.13;;;28.00;58.80;;;;;;4997663;28;20444;-49
2021/08/08 09:21:43;;;;;;;2.70;1.20;;;29.10;56.30;;;;;;4998063;28;20515;-49
2021/08/08 09:24:10;;;;;;;1.50;1.40;;;30.10;54.70;;;;;;5004141;28;20449;-50
2021/08/08 09:26:37;;;;;;;1.97;1.37;;;30.70;53.30;;;;;;5002613;28;20997;-50
2021/08/08 09:29:07;;;;;;;3.43;1.20;;;31.40;51.50;;;;;;5004540;28;20817;-50
2021/08/08 09:31:59;;;;;;;1.23;1.13;;;31.80;51.60;;;;;;5005739;28;20457;-49
2021/08/08 09:34:31;;;;;;;4.17;1.00;;;31.90;51.00;;;;;;4998679;28;20447;-49
2021/08/08 09:37:03;;;;;;;2.40;1.00;;;32.40;50.80;;;;;;5006569;28;20838;-49
2021/08/08 09:39:32;;;;;;;1.70;1.13;;;32.00;49.70;;;;;;5000456;28;20445;-49
2021/08/08 09:42:27;;;;;;;1.60;1.27;;;31.40;51.00;;;;;;5005998;28;20480;-47
2021/08/08 09:44:59;;;;;;;1.80;1.23;;;31.00;51.40;;;;;;4997135;28;20448;-49
2021/08/08 09:47:38;;;;;;;1.90;1.70;;;30.20;53.30;;;;;;4996654;28;21000;-49
2021/08/08 09:50:05;;;;;;;1.77;1.20;;;29.60;54.80;;;;;;4998564;28;20465;-49
2021/08/08 09:52:36;;;;;;;4.23;1.53;;;29.60;54.50;;;;;;5001993;28;20476;-49
2021/08/08 09:55:16;;;;;;;1.87;1.50;;;29.20;54.10;;;;;;4999356;28;20778;-49
2021/08/08 09:57:42;;;;;;;1.33;1.20;;;29.30;55.10;;;;;;5000592;28;20452;-49
2021/08/08 10:00:09;;;;;;;2.10;1.33;;;29.00;54.90;;;;;;4998245;28;20431;-49
2021/08/08 10:02:35;;;;;;;1.33;1.23;;;28.90;52.80;;;;;;5004020;28;20441;-48
2021/08/08 10:05:01;;;;;;;2.60;1.23;;;28.90;53.20;;;;;;4997564;28;20807;-49
2021/08/08 10:07:29;;;;;;;1.73;1.30;;;28.40;53.20;;;;;;4999305;28;20755;-49
2021/08/08 10:09:57;;;;;;;1.73;1.40;;;27.50;55.30;;;;;;5000038;28;20208;-48
2021/08/08 10:12:22;;;;;;;1.73;1.40;;;27.40;57.10;;;;;;5001330;28;20437;-48
2021/08/08 10:14:51;;;;;;;1.80;1.30;;;27.30;57.40;;;;;;5005972;28;20438;-49
2021/08/08 10:17:18;;;;;;;1.37;1.10;;;27.20;57.00;;;;;;5000873;28;20210;-49
2021/08/08 10:19:45;;;;;;;3.40;2.97;;;26.90;58.20;;;;;;5008269;28;20441;-49
2021/08/08 10:22:14;;;;;;;1.57;1.47;;;27.00;58.30;;;;;;5003340;28;20440;-49
2021/08/08 10:24:40;;;;;;;2.10;1.50;;;26.60;59.70;;;;;;4999940;28;20948;-49
2021/08/08 10:27:06;;;;;;;1.70;1.17;;;26.60;59.00;;;;;;5006862;28;20211;-48
2021/08/08 10:29:32;;;;;;;1.90;1.40;;;26.30;60.30;;;;;;4999366;28;20556;-49
2021/08/08 10:31:58;;;;;;;3.07;1.50;;;26.30;59.40;;;;;;5013958;28;20187;-49
2021/08/08 10:34:30;;;;;;;3.50;1.20;;;26.20;59.40;;;;;;4995988;28;20445;-49
2021/08/08 10:37:12;;;;;;;1.87;1.60;;;26.40;58.90;;;;;;5005887;28;20615;-48
2021/08/08 10:39:45;;;;;;;2.30;1.73;;;26.20;58.90;;;;;;5001036;28;20457;-49
2021/08/08 10:42:11;;;;;;;1.27;1.17;;;26.10;59.60;;;;;;5003243;28;20913;-49
2021/08/08 10:44:47;;;;;;;4.80;1.40;;;26.10;58.20;;;;;;5005034;28;20953;-49
2021/08/08 10:47:27;;;;;;;1.20;1.10;;;25.80;59.80;;;;;;5001579;28;20224;-48
2021/08/08 10:49:53;;;;;;;2.57;1.73;;;25.40;60.40;;;;;;5005306;28;20498;-49
2021/08/08 10:52:20;;;;;;;2.13;1.13;;;25.30;61.30;;;;;;5009509;28;20434;-49
2021/08/08 10:54:48;;;;;;;1.73;1.10;;;25.20;60.00;;;;;;5004769;28;20986;-48
2021/08/08 10:57:18;;;;;;;1.53;1.10;;;25.20;60.60;;;;;;5005154;28;20513;-49
2021/08/08 10:59:52;;;;;;;1.30;1.00;;;25.00;59.30;;;;;;4997917;28;20455;-49
2021/08/08 11:02:28;;;;;;;3.23;1.73;;;25.00;60.80;;;;;;5002983;28;20447;-48
2021/08/08 11:04:54;;;;;;;1.30;1.20;;;24.80;61.70;;;;;;5002772;28;20448;-49
2021/08/08 11:07:28;;;;;;;1.20;1.10;;;24.90;63.00;;;;;;5007456;28;20515;-49
2021/08/08 11:09:54;;;;;;;1.30;1.20;;;24.50;63.10;;;;;;5009170;28;20469;-49
2021/08/08 11:12:40;;;;;;;1.40;1.30;;;24.60;63.40;;;;;;5003397;28;20511;-48
2021/08/08 11:15:08;;;;;;;2.03;1.20;;;24.80;63.70;;;;;;4996721;28;20181;-49
2021/08/08 11:17:34;;;;;;;1.40;1.20;;;25.30;61.90;;;;;;5001330;28;20955;-50
2021/08/08 11:20:00;;;;;;;1.40;1.30;;;25.60;59.90;;;;;;4998685;28;20883;-49
2021/08/08 11:22:27;;;;;;;2.60;1.20;;;25.70;59.40;;;;;;5007011;28;20485;-49
2021/08/08 11:25:04;;;;;;;1.47;1.17;;;25.60;59.80;;;;;;5001078;28;20479;-49
2021/08/08 11:27:33;;;;;;;2.07;1.33;;;25.90;59.20;;;;;;5003289;28;20531;-49
2021/08/08 11:30:00;;;;;;;2.87;1.40;;;26.00;60.30;;;;;;5002280;28;20480;-49
2021/08/08 11:32:28;;;;;;;1.57;1.40;;;25.90;59.60;;;;;;5009594;28;20813;-49
2021/08/08 11:35:28;;;;;;;1.47;1.37;;;25.50;59.90;;;;;;5005831;28;20440;-49
2021/08/08 11:37:54;;;;;;;1.23;1.13;;;25.50;60.20;;;;;;5012245;28;20453;-49
2021/08/08 11:40:21;;;;;;;3.80;1.40;;;25.40;59.40;;;;;;5003491;28;20793;-48
2021/08/08 11:42:53;;;;;;;1.37;1.20;;;25.40;60.30;;;;;;4999362;28;20565;-49
2021/08/08 11:45:18;;;;;;;1.63;1.20;;;25.40;59.90;;;;;;5003641;28;20521;-49
2021/08/08 11:47:46;;;;;;;2.50;1.27;;;25.20;59.90;;;;;;4998932;28;20457;-49
2021/08/08 11:50:12;;;;;;;2.13;1.50;;;25.00;60.90;;;;;;5002692;28;20664;-49
2021/08/08 11:52:38;;;;;;;1.97;1.60;;;25.00;62.00;;;;;;5006583;28;20496;-49
2021/08/08 11:55:08;;;;;;;1.50;1.40;;;25.00;63.10;;;;;;4999585;28;20615;-49
2021/08/08 11:57:34;;;;;;;2.63;1.50;;;24.90;62.30;;;;;;5004306;28;20229;-49
2021/08/08 12:00:02;;;;;;;2.47;1.60;;;25.10;62.50;;;;;;5000882;28;20465;-50
2021/08/08 12:02:29;;;;;;;2.10;1.60;;;25.20;62.70;;;;;;5001316;28;20512;-50
2021/08/08 12:04:56;;;;;;;1.50;1.23;;;24.90;61.00;;;;;;5006331;28;20822;-49
2021/08/08 12:07:24;;;;;;;2.20;1.30;;;25.00;61.30;;;;;;5000475;28;20458;-49
2021/08/08 12:09:51;;;;;;;2.13;1.60;;;24.90;60.60;;;;;;5008234;28;20572;-49
2021/08/08 12:12:18;;;;;;;3.67;1.30;;;24.60;62.80;;;;;;4998697;28;20958;-49
2021/08/08 12:14:45;;;;;;;1.30;1.20;;;24.20;60.60;;;;;;5003561;28;20452;-49
2021/08/08 12:17:12;;;;;;;1.80;0.93;;;23.80;60.50;;;;;;4996817;28;20462;-50
2021/08/08 12:19:40;;;;;;;2.20;1.10;;;23.30;61.30;;;;;;4997387;28;20454;-49
2021/08/08 12:22:17;;;;;;;1.00;0.90;;;23.00;61.20;;;;;;5004555;28;20437;-49
2021/08/08 12:24:48;;;;;;;2.07;1.20;;;23.00;61.60;;;;;;5004441;28;20449;-49
2021/08/08 12:27:17;;;;;;;2.87;1.30;;;23.00;61.00;;;;;;4998246;28;20528;-50
2021/08/08 12:29:45;;;;;;;1.40;1.00;;;23.00;61.80;;;;;;5010713;28;20937;-50
2021/08/08 12:32:14;;;;;;;0.83;0.80;;;23.00;62.10;;;;;;5007238;28;20545;-48
2021/08/08 12:34:44;;;;;;;1.40;1.30;;;22.90;61.10;;;;;;5006788;28;20434;-48
2021/08/08 12:37:14;;;;;;;1.10;0.93;;;22.70;63.70;;;;;;5004921;28;20710;-48
2021/08/08 12:39:42;;;;;;;1.70;1.40;;;22.80;63.30;;;;;;4999502;28;20530;-49
2021/08/08 12:42:21;;;;;;;3.30;1.10;;;22.80;63.70;;;;;;5007306;28;20641;-50
2021/08/08 12:44:47;;;;;;;1.90;1.03;;;22.80;63.90;;;;;;5005697;28;20520;-49
2021/08/08 12:47:22;;;;;;;1.10;1.00;;;23.00;63.00;;;;;;4998080;28;20472;-49